createdAt,value
2018-12-27T00:06:14.994Z,12.33
2018-12-27T00:08:57.693Z,10.68
2018-12-27T00:11:47.167Z,13.83
2018-12-27T00:14:29.562Z,14.18
2018-12-27T00:17:19.189Z,13.05
2018-12-27T00:20:12.489Z,11.85
2018-12-27T00:26:04.407Z,10.60
2018-12-27T00:28:47.217Z,12.00
2018-12-27T00:34:58.121Z,11.00
2018-12-27T00:37:40.267Z,13.78
2018-12-27T00:40:30.148Z,13.55
2018-12-27T00:43:23.657Z,12.65
2018-12-27T00:46:13.403Z,10.60
2018-12-27T00:48:56.063Z,14.43
2018-12-27T00:51:46.036Z,12.10
2018-12-27T00:54:28.828Z,12.63
2018-12-27T00:57:11.165Z,12.28
2018-12-27T01:03:21.825Z,14.85
2018-12-27T01:06:04.062Z,13.05
2018-12-27T01:08:53.825Z,10.55
2018-12-27T01:11:36.136Z,13.30
2018-12-27T01:23:29.999Z,10.88
2018-12-27T01:26:12.152Z,11.38
2018-12-27T01:29:02.132Z,9.90
2018-12-27T01:31:50.606Z,11.97
2018-12-27T01:34:29.179Z,13.72
2018-12-27T01:37:19.166Z,11.05
2018-12-27T01:40:01.639Z,10.93
2018-12-27T01:42:51.469Z,11.33
2018-12-27T01:45:34.484Z,11.65
2018-12-27T01:48:24.327Z,11.78
2018-12-27T01:51:06.983Z,11.43
2018-12-27T01:53:56.894Z,11.70
2018-12-27T01:56:39.643Z,11.93
2018-12-27T02:02:29.207Z,11.28
2018-12-27T02:05:19.100Z,12.18
2018-12-27T02:08:02.122Z,10.20
2018-12-27T02:16:56.725Z,13.00
2018-12-27T02:19:39.923Z,10.25
2018-12-27T02:22:29.661Z,13.15
2018-12-27T02:25:31.911Z,13.03
2018-12-27T02:28:21.741Z,12.00
2018-12-27T02:31:02.378Z,11.30
2018-12-27T02:33:52.176Z,10.65
2018-12-27T02:36:35.012Z,12.35
2018-12-27T02:39:24.827Z,12.47
2018-12-27T02:42:07.722Z,11.57
2018-12-27T02:44:57.611Z,13.50
2018-12-27T02:47:39.936Z,12.10
2018-12-27T02:53:30.313Z,12.15
2018-12-27T02:56:13.019Z,11.30
2018-12-27T02:58:55.437Z,10.32
2018-12-27T03:01:37.920Z,10.15
2018-12-27T03:04:27.799Z,10.63
2018-12-27T03:07:17.072Z,11.65
2018-12-27T03:10:07.049Z,10.25
2018-12-27T03:12:55.932Z,10.58
2018-12-27T03:15:45.820Z,12.47
2018-12-27T03:18:28.015Z,10.10
2018-12-27T03:21:17.774Z,12.55
2018-12-27T03:24:00.699Z,11.22
2018-12-27T03:26:50.702Z,9.90
2018-12-27T03:29:33.624Z,10.53
2018-12-27T03:32:23.488Z,12.53
2018-12-27T03:35:06.359Z,8.73
2018-12-27T03:37:56.179Z,10.23
2018-12-27T03:40:39.356Z,12.47
2018-12-27T03:43:29.113Z,11.00
2018-12-27T03:46:11.454Z,9.23
2018-12-27T03:49:01.445Z,12.85
2018-12-27T03:51:44.187Z,9.70
2018-12-27T03:54:33.957Z,9.88
2018-12-27T03:57:16.536Z,10.60
2018-12-27T04:00:06.575Z,11.45
2018-12-27T04:02:48.947Z,10.15
2018-12-27T04:08:39.889Z,10.75
2018-12-27T04:11:22.874Z,12.33
2018-12-27T04:14:12.654Z,9.93
2018-12-27T04:16:54.948Z,12.00
2018-12-27T04:22:45.993Z,11.40
2018-12-27T04:25:28.553Z,10.65
2018-12-27T04:28:18.210Z,12.05
2018-12-27T04:31:00.618Z,11.68
2018-12-27T04:33:50.309Z,12.65
2018-12-27T04:36:33.081Z,10.53
2018-12-27T04:39:22.665Z,14.10
2018-12-27T04:42:03.464Z,11.20
2018-12-27T04:44:52.968Z,11.60
2018-12-27T04:47:35.723Z,11.55
2018-12-27T04:50:25.350Z,11.57
2018-12-27T04:53:07.881Z,11.45
2018-12-27T04:58:57.731Z,12.03
2018-12-27T05:01:45.691Z,10.95
2018-12-27T05:04:35.258Z,10.65
2018-12-27T05:07:17.598Z,11.53
2018-12-27T05:10:07.277Z,11.35
2018-12-27T05:12:57.549Z,12.25
2018-12-27T05:15:39.813Z,12.00
2018-12-27T05:18:29.550Z,12.23
2018-12-27T05:21:11.994Z,12.37
2018-12-27T05:24:01.810Z,14.53
2018-12-27T05:26:44.209Z,12.75
2018-12-27T05:29:45.960Z,11.93
2018-12-27T05:32:27.752Z,11.68
2018-12-27T05:35:17.412Z,10.28
2018-12-27T05:37:59.697Z,13.93
2018-12-27T05:40:49.241Z,13.80
2018-12-27T05:43:29.674Z,12.73
2018-12-27T05:46:19.316Z,14.45
2018-12-27T05:49:02.310Z,13.70
2018-12-27T05:54:51.323Z,10.50
2018-12-27T05:57:34.081Z,10.48
2018-12-27T06:00:23.661Z,12.18
2018-12-27T06:03:04.223Z,10.82
2018-12-27T06:05:53.758Z,13.13
2018-12-27T06:08:35.728Z,13.18
2018-12-27T06:14:26.729Z,11.75
2018-12-27T06:17:16.285Z,12.53
2018-12-27T06:19:58.236Z,11.45
2018-12-27T06:25:49.914Z,14.60
2018-12-27T06:28:39.419Z,10.85
2018-12-27T06:31:22.165Z,13.20
2018-12-27T06:34:24.647Z,12.18
2018-12-27T06:37:05.991Z,11.10
2018-12-27T06:39:55.564Z,13.45
2018-12-27T06:42:38.434Z,12.00
2018-12-27T06:48:37.429Z,12.33
2018-12-27T06:51:26.923Z,14.18
2018-12-27T06:54:07.369Z,11.78
2018-12-27T06:56:57.006Z,14.68
2018-12-27T06:59:39.463Z,9.70
2018-12-27T07:02:28.993Z,13.95
2018-12-27T07:05:11.211Z,10.95
2018-12-27T07:08:00.768Z,12.35
2018-12-27T07:10:43.359Z,11.43
2018-12-27T07:13:33.020Z,10.68
2018-12-27T07:16:15.793Z,13.78
2018-12-27T07:19:05.316Z,11.78
2018-12-27T07:21:47.620Z,11.68
2018-12-27T07:24:49.784Z,11.60
2018-12-27T07:27:31.291Z,13.70
2018-12-27T07:33:21.635Z,13.53
2018-12-27T07:36:03.879Z,10.55
2018-12-27T07:38:53.531Z,13.30
2018-12-27T07:41:36.554Z,11.60
2018-12-27T07:44:26.156Z,12.50
2018-12-27T07:47:08.409Z,12.37
2018-12-27T07:49:57.897Z,13.80
2018-12-27T07:52:40.091Z,11.65
2018-12-27T07:55:29.640Z,13.25
2018-12-27T07:58:12.145Z,12.25
2018-12-27T08:01:01.884Z,15.40
2018-12-27T08:03:44.401Z,12.40
2018-12-27T08:06:27.081Z,14.60
2018-12-27T08:09:09.144Z,12.50
2018-12-27T08:11:58.677Z,12.70
2018-12-27T08:14:41.334Z,12.63
2018-12-27T08:20:31.995Z,13.98
2018-12-27T08:23:21.668Z,12.53
2018-12-27T08:26:02.405Z,15.32
2018-12-27T08:28:51.918Z,15.65
2018-12-27T08:31:34.831Z,15.72
2018-12-27T08:34:24.392Z,16.20
2018-12-27T08:37:06.713Z,19.65
2018-12-27T08:42:58.157Z,15.70
2018-12-27T08:45:47.739Z,18.17
2018-12-27T08:48:30.807Z,17.82
2018-12-27T08:51:20.540Z,16.20
2018-12-27T08:54:23.301Z,16.27
2018-12-27T08:57:12.854Z,14.13
2018-12-27T08:59:55.220Z,17.10
2018-12-27T09:05:38.743Z,14.58
2018-12-27T09:08:28.263Z,16.50
2018-12-27T09:11:10.875Z,17.37
2018-12-27T09:14:13.029Z,14.98
2018-12-27T09:16:54.704Z,15.10
2018-12-27T09:19:44.192Z,16.42
2018-12-27T09:22:27.005Z,16.62
2018-12-27T09:31:18.573Z,15.35
2018-12-27T09:34:01.384Z,19.77
2018-12-27T09:36:50.981Z,16.73
2018-12-27T09:39:33.715Z,17.27
2018-12-27T09:42:23.500Z,16.93
2018-12-27T09:45:07.438Z,18.37
2018-12-27T09:47:57.270Z,17.40
2018-12-27T09:50:40.033Z,17.95
2018-12-27T09:53:29.869Z,18.07
2018-12-27T09:56:31.886Z,15.93
2018-12-27T09:59:21.498Z,16.70
2018-12-27T10:02:03.702Z,15.25
2018-12-27T10:04:53.280Z,16.67
2018-12-27T10:07:36.052Z,17.57
2018-12-27T10:10:25.599Z,16.20
2018-12-27T10:13:07.838Z,15.70
2018-12-27T10:15:57.354Z,16.77
2018-12-27T10:18:39.366Z,17.45
2018-12-27T10:24:29.710Z,17.85
2018-12-27T10:27:11.995Z,16.97
2018-12-27T10:33:03.139Z,16.32
2018-12-27T10:35:45.291Z,16.05
2018-12-27T10:38:34.826Z,18.90
2018-12-27T10:41:16.893Z,17.82
2018-12-27T10:50:27.063Z,17.37
2018-12-27T10:53:07.745Z,15.20
2018-12-27T10:55:57.247Z,16.95
2018-12-27T10:58:39.219Z,17.77
2018-12-27T11:01:21.522Z,16.15
2018-12-27T11:04:03.777Z,15.72
2018-12-27T11:07:04.894Z,17.30
2018-12-27T11:09:54.466Z,18.55
2018-12-27T11:12:37.282Z,17.55
2018-12-27T11:15:26.804Z,18.37
2018-12-27T11:18:09.473Z,16.55
2018-12-27T11:20:59.054Z,15.80
2018-12-27T11:23:42.154Z,17.35
2018-12-27T11:26:31.816Z,16.80
2018-12-27T11:29:14.422Z,13.95
2018-12-27T11:32:03.869Z,18.48
2018-12-27T11:34:45.943Z,17.67
2018-12-27T11:37:35.545Z,17.10
2018-12-27T11:40:18.541Z,18.95
2018-12-27T11:43:09.649Z,19.23
2018-12-27T11:46:01.826Z,15.40
2018-12-27T11:48:51.405Z,18.02
2018-12-27T11:51:34.182Z,19.82
2018-12-27T11:57:25.167Z,17.98
2018-12-27T12:00:09.537Z,17.45
2018-12-27T12:06:03.349Z,16.90
2018-12-27T12:08:55.575Z,17.02
2018-12-27T12:11:45.291Z,16.35
2018-12-27T12:14:27.869Z,16.37
2018-12-27T12:17:17.345Z,18.62
2018-12-27T12:20:00.275Z,17.77
2018-12-27T12:22:50.019Z,16.32
2018-12-27T12:25:32.868Z,15.45
2018-12-27T12:28:22.581Z,18.62
2018-12-27T12:31:05.458Z,17.62
2018-12-27T12:33:55.255Z,17.85
2018-12-27T12:36:38.129Z,18.67
2018-12-27T12:39:27.639Z,19.25
2018-12-27T12:42:09.782Z,16.45
2018-12-27T12:44:52.261Z,19.90
2018-12-27T12:47:34.496Z,16.25
2018-12-27T12:50:23.983Z,17.32
2018-12-27T12:53:06.824Z,18.35
2018-12-27T12:55:56.445Z,16.70
2018-12-27T12:58:39.048Z,17.35
2018-12-27T13:01:28.553Z,19.42
2018-12-27T13:04:11.329Z,17.50
2018-12-27T13:07:00.935Z,16.65
2018-12-27T13:09:43.546Z,21.25
2018-12-27T13:12:33.099Z,18.25
2018-12-27T13:15:15.273Z,17.12
2018-12-27T13:18:04.797Z,18.98
2018-12-27T13:20:46.797Z,17.10
2018-12-27T13:23:29.529Z,18.50
2018-12-27T13:26:11.955Z,18.52
2018-12-27T13:32:03.593Z,18.23
2018-12-27T13:34:45.544Z,22.20
2018-12-27T13:37:35.112Z,19.48
2018-12-27T13:40:17.787Z,20.10
2018-12-27T13:43:07.326Z,17.32
2018-12-27T13:45:49.476Z,21.80
2018-12-27T13:48:39.074Z,19.70
2018-12-27T13:51:21.208Z,21.02
2018-12-27T13:54:10.715Z,18.98
2018-12-27T13:56:51.124Z,17.07
2018-12-27T13:59:40.649Z,19.42
2018-12-27T14:02:22.742Z,17.92
2018-12-27T14:05:12.298Z,15.83
2018-12-27T14:07:54.963Z,17.10
2018-12-27T14:10:44.471Z,17.60
2018-12-27T14:13:24.813Z,18.23
2018-12-27T14:16:14.336Z,17.23
2018-12-27T14:18:54.837Z,19.60
2018-12-27T14:21:44.378Z,21.75
2018-12-27T14:24:26.854Z,17.65
2018-12-27T14:27:16.379Z,20.05
2018-12-27T14:29:58.667Z,18.35
2018-12-27T14:35:48.861Z,17.65
2018-12-27T14:38:31.698Z,16.32
2018-12-27T14:41:21.249Z,19.98
2018-12-27T14:44:03.616Z,17.07
2018-12-27T14:46:53.123Z,16.73
2018-12-27T14:49:35.743Z,18.67
2018-12-27T14:52:25.252Z,17.15
2018-12-27T14:55:07.276Z,19.12
2018-12-27T14:57:56.813Z,20.92
2018-12-27T15:00:37.438Z,16.73
2018-12-27T15:03:26.944Z,16.52
2018-12-27T15:06:09.187Z,17.15
2018-12-27T15:08:58.707Z,17.30
2018-12-27T15:11:41.448Z,20.92
2018-12-27T15:14:31.046Z,16.55
2018-12-27T15:17:13.326Z,17.20
2018-12-27T15:20:14.104Z,16.37
2018-12-27T15:23:03.638Z,16.85
2018-12-27T15:25:45.544Z,34.27
2018-12-27T15:28:35.063Z,17.45
2018-12-27T15:31:17.052Z,17.48
2018-12-27T15:34:06.642Z,18.82
2018-12-27T15:36:54.265Z,18.05
2018-12-27T15:39:32.677Z,18.60
2018-12-27T15:42:13.129Z,16.62
2018-12-27T15:45:02.702Z,16.45
2018-12-27T15:47:45.316Z,16.35
2018-12-27T15:50:34.873Z,17.80
2018-12-27T15:53:28.266Z,18.87
2018-12-27T15:56:17.855Z,19.80
2018-12-27T15:58:59.881Z,17.17
2018-12-27T16:01:49.447Z,15.88
2018-12-27T16:04:32.185Z,18.48
2018-12-27T16:07:21.717Z,14.83
2018-12-27T16:10:04.594Z,16.25
2018-12-27T16:15:55.646Z,14.63
2018-12-27T16:18:37.696Z,18.85
2018-12-27T16:21:27.210Z,17.37
2018-12-27T16:24:07.696Z,17.07
2018-12-27T16:26:57.249Z,16.55
2018-12-27T16:29:39.491Z,17.82
2018-12-27T16:32:29.052Z,16.87
2018-12-27T16:35:11.586Z,17.35
2018-12-27T16:38:01.134Z,15.53
2018-12-27T16:40:43.053Z,16.32
2018-12-27T16:43:32.587Z,17.73
2018-12-27T16:46:14.583Z,16.20
2018-12-27T16:49:04.099Z,16.65
2018-12-27T16:51:46.724Z,18.07
2018-12-27T16:54:36.257Z,17.80
2018-12-27T16:57:19.839Z,14.53
2018-12-27T17:03:18.691Z,16.67
2018-12-27T17:06:00.815Z,15.53
2018-12-27T17:08:50.489Z,19.05
2018-12-27T17:11:32.840Z,15.32
2018-12-27T17:14:22.502Z,13.40
2018-12-27T17:17:04.427Z,17.02
2018-12-27T17:19:53.946Z,15.98
2018-12-27T17:22:36.514Z,15.00
2018-12-27T17:28:27.657Z,16.52
2018-12-27T17:31:09.655Z,16.87
2018-12-27T17:33:59.232Z,15.95
2018-12-27T17:36:48.392Z,13.68
2018-12-27T17:39:37.878Z,17.62
2018-12-27T17:42:20.031Z,14.13
2018-12-27T17:45:09.703Z,16.75
2018-12-27T17:47:50.170Z,15.13
2018-12-27T17:50:39.657Z,16.62
2018-12-27T17:53:22.446Z,16.90
2018-12-27T17:56:11.977Z,19.52
2018-12-27T17:58:52.535Z,17.32
2018-12-27T18:01:42.058Z,16.73
2018-12-27T18:04:24.520Z,19.80
2018-12-27T18:07:14.144Z,15.72
2018-12-27T18:09:57.124Z,16.15
2018-12-27T18:15:48.283Z,19.62
2018-12-27T18:18:30.336Z,17.87
2018-12-27T18:24:21.622Z,17.32
2018-12-27T18:27:03.865Z,17.55
2018-12-27T18:29:53.345Z,15.53
2018-12-27T18:32:35.610Z,16.45
2018-12-27T18:35:25.105Z,16.90
2018-12-27T18:38:07.970Z,17.52
2018-12-27T18:40:57.499Z,19.15
2018-12-27T18:43:40.141Z,19.42
2018-12-27T18:46:29.627Z,15.85
2018-12-27T18:49:10.111Z,14.98
2018-12-27T18:51:59.605Z,16.35
2018-12-27T18:54:41.740Z,15.40
2018-12-27T18:57:31.215Z,14.43
2018-12-27T19:00:11.809Z,12.82
2018-12-27T19:02:54.678Z,14.85
2018-12-27T19:05:37.392Z,14.65
2018-12-27T19:08:26.866Z,14.40
2018-12-27T19:11:28.417Z,16.25
2018-12-27T19:14:17.931Z,14.98
2018-12-27T19:17:00.690Z,12.98
2018-12-27T19:19:50.254Z,14.87
2018-12-27T19:22:34.473Z,15.50
2018-12-27T19:25:24.006Z,16.40
2018-12-27T19:28:06.527Z,17.42
2018-12-27T19:30:56.042Z,15.60
2018-12-27T19:33:38.906Z,15.05
2018-12-27T19:36:28.418Z,14.53
2018-12-27T19:39:10.595Z,15.18
2018-12-27T19:42:00.123Z,13.83
2018-12-27T19:44:42.108Z,14.23
2018-12-27T19:47:31.628Z,13.40
2018-12-27T19:50:14.080Z,11.80
2018-12-27T19:53:03.589Z,12.43
2018-12-27T19:55:46.306Z,15.18
2018-12-27T19:58:35.798Z,16.25
2018-12-27T20:01:18.402Z,16.87
2018-12-27T20:04:01.194Z,13.78
2018-12-27T20:06:43.222Z,15.45
2018-12-27T20:09:32.665Z,16.75
2018-12-27T20:12:14.727Z,16.67
2018-12-27T20:21:28.099Z,15.80
2018-12-27T20:24:10.858Z,17.52
2018-12-27T20:27:00.403Z,17.07
2018-12-27T20:29:42.324Z,19.82
2018-12-27T20:32:31.857Z,19.25
2018-12-27T20:35:13.943Z,15.85
2018-12-27T20:38:06.879Z,14.63
2018-12-27T20:40:57.645Z,18.15
2018-12-27T20:43:47.207Z,16.65
2018-12-27T20:46:29.144Z,19.73
2018-12-27T20:49:18.678Z,15.40
2018-12-27T20:52:01.383Z,16.75
2018-12-27T20:54:50.896Z,16.85
2018-12-27T20:57:33.332Z,19.42
2018-12-27T21:00:22.877Z,18.40
2018-12-27T21:03:05.476Z,23.52
2018-12-27T21:05:54.968Z,18.05
2018-12-27T21:08:35.665Z,19.20
2018-12-27T21:11:25.154Z,19.77
2018-12-27T21:14:07.236Z,17.55
2018-12-27T21:16:56.732Z,19.87
2018-12-27T21:19:38.828Z,19.62
2018-12-27T21:22:28.322Z,18.25
2018-12-27T21:25:11.076Z,20.23
2018-12-27T21:27:41.233Z,20.92
2018-12-27T21:30:11.419Z,22.15
2018-12-27T21:32:41.583Z,19.73
2018-12-27T21:35:11.786Z,24.18
2018-12-27T21:37:42.017Z,22.25
2018-12-27T21:40:12.178Z,22.87
2018-12-27T21:42:42.340Z,22.27
2018-12-27T21:45:12.527Z,21.35
2018-12-27T21:47:42.714Z,22.93
2018-12-27T21:50:12.932Z,20.32
2018-12-27T21:52:43.110Z,19.90
2018-12-27T21:55:13.286Z,21.55
2018-12-27T21:57:43.560Z,23.32
2018-12-27T22:00:13.749Z,21.73
2018-12-27T22:02:43.963Z,19.80
2018-12-27T22:05:14.158Z,21.15
2018-12-27T22:07:44.322Z,20.23
2018-12-27T22:10:14.575Z,17.90
2018-12-27T22:12:44.745Z,23.73
2018-12-27T22:15:14.881Z,23.57
2018-12-27T22:17:45.047Z,20.57
2018-12-27T22:20:15.284Z,21.52
2018-12-27T22:22:45.436Z,20.95
2018-12-27T22:25:15.594Z,19.80
2018-12-27T22:27:45.762Z,26.07
2018-12-27T22:30:15.940Z,22.02
2018-12-27T22:32:46.083Z,20.05
2018-12-27T22:35:16.270Z,22.32
2018-12-27T22:37:46.415Z,17.98
2018-12-27T22:40:16.604Z,19.40
2018-12-27T22:42:46.752Z,24.57
2018-12-27T22:45:16.948Z,19.60
2018-12-27T22:47:47.118Z,24.25
2018-12-27T22:50:17.267Z,20.00
2018-12-27T22:52:47.618Z,21.60
2018-12-27T22:55:17.802Z,22.05
2018-12-27T22:57:47.965Z,19.57
2018-12-27T23:00:23.177Z,22.87
2018-12-27T23:02:53.417Z,22.55
2018-12-27T23:05:23.584Z,24.87
2018-12-27T23:07:53.722Z,21.02
2018-12-27T23:10:23.953Z,21.42
2018-12-27T23:12:54.194Z,23.65
2018-12-27T23:15:24.363Z,20.50
2018-12-27T23:17:56.068Z,23.70
2018-12-27T23:20:26.278Z,25.02
2018-12-27T23:22:56.485Z,23.65
2018-12-27T23:25:26.642Z,24.65
2018-12-27T23:27:56.875Z,19.65
2018-12-27T23:30:27.057Z,27.22
2018-12-27T23:32:57.273Z,23.05
2018-12-27T23:35:27.436Z,21.17
2018-12-27T23:37:57.698Z,26.37
2018-12-27T23:40:27.882Z,20.05
2018-12-27T23:42:58.080Z,19.37
2018-12-27T23:45:28.327Z,23.20
2018-12-27T23:47:58.508Z,16.60
2018-12-27T23:50:28.701Z,24.75
2018-12-27T23:52:58.846Z,22.70
2018-12-27T23:55:29.015Z,20.65
2018-12-27T23:57:59.155Z,22.87
